sensor_id;sensor_type;location;lat;lon;timestamp;P1;durP1;ratioP1;P2;durP2;ratioP2
69381;SDS011;56560;50.692;12.844;2024-02-21T00:01:39;13.53;;;2.40;;
69381;SDS011;56560;50.692;12.844;2024-02-21T00:04:05;11.23;;;2.80;;
69381;SDS011;56560;50.692;12.844;2024-02-21T00:06:31;10.32;;;2.97;;
69381;SDS011;56560;50.692;12.844;2024-02-21T00:08:57;15.13;;;3.00;;
69381;SDS011;56560;50.692;12.844;2024-02-21T00:11:23;10.48;;;2.60;;
69381;SDS011;56560;50.692;12.844;2024-02-21T00:13:48;9.82;;;2.60;;
69381;SDS011;56560;50.692;12.844;2024-02-21T00:16:15;10.43;;;2.47;;
69381;SDS011;56560;50.692;12.844;2024-02-21T00:18:41;8.40;;;2.47;;
69381;SDS011;56560;50.692;12.844;2024-02-21T00:21:08;11.65;;;3.00;;
69381;SDS011;56560;50.692;12.844;2024-02-21T00:23:33;11.20;;;2.70;;
69381;SDS011;56560;50.692;12.844;2024-02-21T00:25:59;9.88;;;2.60;;
69381;SDS011;56560;50.692;12.844;2024-02-21T00:28:25;11.87;;;2.90;;
69381;SDS011;56560;50.692;12.844;2024-02-21T00:30:50;11.63;;;2.80;;
69381;SDS011;56560;50.692;12.844;2024-02-21T00:33:18;12.18;;;2.50;;
69381;SDS011;56560;50.692;12.844;2024-02-21T00:35:44;13.20;;;2.42;;
69381;SDS011;56560;50.692;12.844;2024-02-21T00:38:09;8.88;;;2.60;;
69381;SDS011;56560;50.692;12.844;2024-02-21T00:40:36;12.93;;;3.00;;
69381;SDS011;56560;50.692;12.844;2024-02-21T00:43:02;12.90;;;2.97;;
69381;SDS011;56560;50.692;12.844;2024-02-21T00:45:28;9.65;;;2.88;;
69381;SDS011;56560;50.692;12.844;2024-02-21T00:47:53;14.27;;;2.60;;
69381;SDS011;56560;50.692;12.844;2024-02-21T00:50:19;11.57;;;2.60;;
69381;SDS011;56560;50.692;12.844;2024-02-21T00:52:45;10.80;;;2.90;;
69381;SDS011;56560;50.692;12.844;2024-02-21T00:55:11;10.93;;;2.80;;
69381;SDS011;56560;50.692;12.844;2024-02-21T01:03:14;10.65;;;3.00;;
69381;SDS011;56560;50.692;12.844;2024-02-21T01:05:40;10.17;;;3.40;;
69381;SDS011;56560;50.692;12.844;2024-02-21T01:08:06;12.57;;;2.93;;
69381;SDS011;56560;50.692;12.844;2024-02-21T01:10:31;13.00;;;3.20;;
69381;SDS011;56560;50.692;12.844;2024-02-21T01:12:57;17.67;;;3.67;;
69381;SDS011;56560;50.692;12.844;2024-02-21T01:15:23;9.52;;;2.85;;
69381;SDS011;56560;50.692;12.844;2024-02-21T01:17:49;11.85;;;2.97;;
69381;SDS011;56560;50.692;12.844;2024-02-21T01:20:19;11.43;;;3.03;;
69381;SDS011;56560;50.692;12.844;2024-02-21T01:22:45;13.82;;;3.45;;
69381;SDS011;56560;50.692;12.844;2024-02-21T01:25:11;13.90;;;3.03;;
69381;SDS011;56560;50.692;12.844;2024-02-21T01:27:37;13.40;;;3.10;;
69381;SDS011;56560;50.692;12.844;2024-02-21T01:30:02;12.27;;;2.88;;
69381;SDS011;56560;50.692;12.844;2024-02-21T01:32:28;14.85;;;3.25;;
69381;SDS011;56560;50.692;12.844;2024-02-21T01:34:54;10.43;;;2.97;;
69381;SDS011;56560;50.692;12.844;2024-02-21T01:37:20;14.40;;;3.20;;
69381;SDS011;56560;50.692;12.844;2024-02-21T01:39:45;12.57;;;3.17;;
69381;SDS011;56560;50.692;12.844;2024-02-21T01:42:11;12.07;;;3.60;;
69381;SDS011;56560;50.692;12.844;2024-02-21T01:44:36;14.10;;;3.07;;
69381;SDS011;56560;50.692;12.844;2024-02-21T01:47:03;12.57;;;3.20;;
69381;SDS011;56560;50.692;12.844;2024-02-21T01:49:28;13.65;;;3.25;;
69381;SDS011;56560;50.692;12.844;2024-02-21T01:51:55;11.83;;;2.80;;
69381;SDS011;56560;50.692;12.844;2024-02-21T01:54:20;13.60;;;3.25;;
69381;SDS011;56560;50.692;12.844;2024-02-21T01:56:46;12.68;;;3.13;;
69381;SDS011;56560;50.692;12.844;2024-02-21T01:59:12;10.48;;;3.38;;
69381;SDS011;56560;50.692;12.844;2024-02-21T02:01:40;12.80;;;3.30;;
69381;SDS011;56560;50.692;12.844;2024-02-21T02:04:06;13.27;;;3.00;;
69381;SDS011;56560;50.692;12.844;2024-02-21T02:06:32;12.70;;;3.00;;
69381;SDS011;56560;50.692;12.844;2024-02-21T02:08:58;11.50;;;3.00;;
69381;SDS011;56560;50.692;12.844;2024-02-21T02:11:24;8.80;;;2.70;;
69381;SDS011;56560;50.692;12.844;2024-02-21T02:13:49;13.55;;;3.00;;
69381;SDS011;56560;50.692;12.844;2024-02-21T02:16:15;13.23;;;3.10;;
69381;SDS011;56560;50.692;12.844;2024-02-21T02:18:41;12.97;;;3.00;;
69381;SDS011;56560;50.692;12.844;2024-02-21T02:21:08;13.43;;;3.55;;
69381;SDS011;56560;50.692;12.844;2024-02-21T02:23:44;12.25;;;3.17;;
69381;SDS011;56560;50.692;12.844;2024-02-21T02:26:10;9.90;;;2.90;;
69381;SDS011;56560;50.692;12.844;2024-02-21T02:28:36;14.23;;;3.03;;
69381;SDS011;56560;50.692;12.844;2024-02-21T02:31:01;14.32;;;2.95;;
69381;SDS011;56560;50.692;12.844;2024-02-21T02:33:27;11.87;;;3.23;;
69381;SDS011;56560;50.692;12.844;2024-02-21T02:35:53;13.98;;;2.95;;
69381;SDS011;56560;50.692;12.844;2024-02-21T02:38:18;12.43;;;3.40;;
69381;SDS011;56560;50.692;12.844;2024-02-21T02:40:44;12.70;;;3.07;;
69381;SDS011;56560;50.692;12.844;2024-02-21T02:43:09;13.35;;;3.33;;
69381;SDS011;56560;50.692;12.844;2024-02-21T02:45:35;13.30;;;2.87;;
69381;SDS011;56560;50.692;12.844;2024-02-21T02:48:01;11.13;;;3.15;;
69381;SDS011;56560;50.692;12.844;2024-02-21T02:50:27;12.63;;;3.08;;
69381;SDS011;56560;50.692;12.844;2024-02-21T02:52:53;11.93;;;3.07;;
69381;SDS011;56560;50.692;12.844;2024-02-21T02:55:19;14.30;;;3.08;;
69381;SDS011;56560;50.692;12.844;2024-02-21T02:57:45;10.70;;;3.50;;
69381;SDS011;56560;50.692;12.844;2024-02-21T03:00:11;21.40;;;4.03;;
69381;SDS011;56560;50.692;12.844;2024-02-21T03:02:38;13.18;;;3.30;;
69381;SDS011;56560;50.692;12.844;2024-02-21T03:05:11;13.60;;;3.38;;
69381;SDS011;56560;50.692;12.844;2024-02-21T03:07:38;10.75;;;3.15;;
69381;SDS011;56560;50.692;12.844;2024-02-21T03:10:04;15.80;;;3.53;;
69381;SDS011;56560;50.692;12.844;2024-02-21T03:12:30;12.00;;;3.35;;
69381;SDS011;56560;50.692;12.844;2024-02-21T03:14:56;15.10;;;3.40;;
69381;SDS011;56560;50.692;12.844;2024-02-21T03:17:21;17.35;;;3.40;;
69381;SDS011;56560;50.692;12.844;2024-02-21T03:19:47;11.07;;;3.43;;
69381;SDS011;56560;50.692;12.844;2024-02-21T03:22:14;13.95;;;3.28;;
69381;SDS011;56560;50.692;12.844;2024-02-21T03:24:41;10.45;;;3.38;;
69381;SDS011;56560;50.692;12.844;2024-02-21T03:27:07;15.13;;;3.38;;
69381;SDS011;56560;50.692;12.844;2024-02-21T03:29:33;13.57;;;2.90;;
69381;SDS011;56560;50.692;12.844;2024-02-21T03:31:59;15.07;;;3.83;;
69381;SDS011;56560;50.692;12.844;2024-02-21T03:34:24;13.97;;;2.90;;
69381;SDS011;56560;50.692;12.844;2024-02-21T03:36:50;14.93;;;3.47;;
69381;SDS011;56560;50.692;12.844;2024-02-21T03:39:15;11.07;;;3.78;;
69381;SDS011;56560;50.692;12.844;2024-02-21T03:41:41;12.97;;;2.93;;
69381;SDS011;56560;50.692;12.844;2024-02-21T03:44:07;13.82;;;3.67;;
69381;SDS011;56560;50.692;12.844;2024-02-21T03:46:32;12.93;;;3.53;;
69381;SDS011;56560;50.692;12.844;2024-02-21T03:48:58;14.25;;;3.60;;
69381;SDS011;56560;50.692;12.844;2024-02-21T03:51:25;14.88;;;3.63;;
69381;SDS011;56560;50.692;12.844;2024-02-21T03:53:51;12.50;;;3.70;;
69381;SDS011;56560;50.692;12.844;2024-02-21T03:56:17;12.27;;;3.37;;
69381;SDS011;56560;50.692;12.844;2024-02-21T03:58:42;11.48;;;3.30;;
69381;SDS011;56560;50.692;12.844;2024-02-21T04:01:08;17.17;;;3.30;;
69381;SDS011;56560;50.692;12.844;2024-02-21T04:03:33;13.13;;;3.63;;
69381;SDS011;56560;50.692;12.844;2024-02-21T04:05:59;13.38;;;3.35;;
69381;SDS011;56560;50.692;12.844;2024-02-21T04:08:25;11.48;;;3.15;;
69381;SDS011;56560;50.692;12.844;2024-02-21T04:10:51;12.37;;;3.40;;
69381;SDS011;56560;50.692;12.844;2024-02-21T04:13:16;12.25;;;3.30;;
69381;SDS011;56560;50.692;12.844;2024-02-21T04:15:42;13.43;;;3.63;;
69381;SDS011;56560;50.692;12.844;2024-02-21T04:18:08;12.48;;;3.50;;
69381;SDS011;56560;50.692;12.844;2024-02-21T04:20:34;11.40;;;3.23;;
69381;SDS011;56560;50.692;12.844;2024-02-21T04:23:00;15.50;;;3.60;;
69381;SDS011;56560;50.692;12.844;2024-02-21T04:25:26;14.87;;;3.10;;
69381;SDS011;56560;50.692;12.844;2024-02-21T04:27:51;13.05;;;3.30;;
69381;SDS011;56560;50.692;12.844;2024-02-21T04:30:19;14.20;;;3.50;;
69381;SDS011;56560;50.692;12.844;2024-02-21T04:32:44;12.67;;;3.87;;
69381;SDS011;56560;50.692;12.844;2024-02-21T04:35:10;11.82;;;3.17;;
69381;SDS011;56560;50.692;12.844;2024-02-21T04:37:35;12.15;;;3.22;;
69381;SDS011;56560;50.692;12.844;2024-02-21T04:40:01;11.93;;;3.30;;
69381;SDS011;56560;50.692;12.844;2024-02-21T04:42:27;11.90;;;3.45;;
69381;SDS011;56560;50.692;12.844;2024-02-21T04:44:52;13.10;;;3.43;;
69381;SDS011;56560;50.692;12.844;2024-02-21T04:47:18;13.55;;;3.28;;
69381;SDS011;56560;50.692;12.844;2024-02-21T04:49:48;13.70;;;3.50;;
69381;SDS011;56560;50.692;12.844;2024-02-21T04:52:14;11.55;;;3.58;;
69381;SDS011;56560;50.692;12.844;2024-02-21T04:54:40;12.33;;;3.37;;
69381;SDS011;56560;50.692;12.844;2024-02-21T04:57:05;11.25;;;3.45;;
69381;SDS011;56560;50.692;12.844;2024-02-21T04:59:31;10.07;;;3.27;;
69381;SDS011;56560;50.692;12.844;2024-02-21T05:01:57;14.18;;;3.67;;
69381;SDS011;56560;50.692;12.844;2024-02-21T05:04:23;14.45;;;3.50;;
69381;SDS011;56560;50.692;12.844;2024-02-21T05:06:49;13.50;;;3.60;;
69381;SDS011;56560;50.692;12.844;2024-02-21T05:09:15;10.70;;;3.30;;
69381;SDS011;56560;50.692;12.844;2024-02-21T05:11:41;14.00;;;3.28;;
69381;SDS011;56560;50.692;12.844;2024-02-21T05:14:06;14.63;;;3.90;;
69381;SDS011;56560;50.692;12.844;2024-02-21T05:16:32;15.50;;;3.78;;
69381;SDS011;56560;50.692;12.844;2024-02-21T05:18:58;12.37;;;3.10;;
69381;SDS011;56560;50.692;12.844;2024-02-21T05:21:23;13.10;;;3.30;;
69381;SDS011;56560;50.692;12.844;2024-02-21T05:23:50;11.20;;;3.55;;
69381;SDS011;56560;50.692;12.844;2024-02-21T05:26:22;12.35;;;3.38;;
69381;SDS011;56560;50.692;12.844;2024-02-21T05:28:49;14.67;;;3.90;;
69381;SDS011;56560;50.692;12.844;2024-02-21T05:31:16;11.20;;;3.53;;
69381;SDS011;56560;50.692;12.844;2024-02-21T05:33:45;12.50;;;4.10;;
69381;SDS011;56560;50.692;12.844;2024-02-21T05:36:11;13.00;;;3.78;;
69381;SDS011;56560;50.692;12.844;2024-02-21T05:38:37;13.25;;;3.80;;
69381;SDS011;56560;50.692;12.844;2024-02-21T05:41:03;13.43;;;4.50;;
69381;SDS011;56560;50.692;12.844;2024-02-21T05:43:29;11.63;;;3.93;;
69381;SDS011;56560;50.692;12.844;2024-02-21T05:45:54;13.60;;;4.25;;
69381;SDS011;56560;50.692;12.844;2024-02-21T05:48:21;12.57;;;3.97;;
69381;SDS011;56560;50.692;12.844;2024-02-21T05:50:47;12.80;;;3.70;;
69381;SDS011;56560;50.692;12.844;2024-02-21T05:53:13;16.20;;;4.57;;
69381;SDS011;56560;50.692;12.844;2024-02-21T05:55:38;15.57;;;4.37;;
69381;SDS011;56560;50.692;12.844;2024-02-21T05:58:04;14.45;;;4.38;;
69381;SDS011;56560;50.692;12.844;2024-02-21T06:00:31;12.52;;;4.30;;
69381;SDS011;56560;50.692;12.844;2024-02-21T06:02:57;14.88;;;4.75;;
69381;SDS011;56560;50.692;12.844;2024-02-21T06:05:23;15.13;;;4.30;;
69381;SDS011;56560;50.692;12.844;2024-02-21T06:07:49;16.77;;;3.90;;
69381;SDS011;56560;50.692;12.844;2024-02-21T06:10:14;16.37;;;4.47;;
69381;SDS011;56560;50.692;12.844;2024-02-21T06:12:40;13.75;;;4.63;;
69381;SDS011;56560;50.692;12.844;2024-02-21T06:15:06;14.70;;;4.07;;
69381;SDS011;56560;50.692;12.844;2024-02-21T06:17:32;16.52;;;4.18;;
69381;SDS011;56560;50.692;12.844;2024-02-21T06:19:58;11.82;;;3.70;;
69381;SDS011;56560;50.692;12.844;2024-02-21T06:22:23;14.60;;;4.50;;
69381;SDS011;56560;50.692;12.844;2024-02-21T06:24:49;13.90;;;4.20;;
69381;SDS011;56560;50.692;12.844;2024-02-21T06:27:15;16.77;;;4.60;;
69381;SDS011;56560;50.692;12.844;2024-02-21T06:29:41;13.73;;;4.43;;
69381;SDS011;56560;50.692;12.844;2024-02-21T06:32:07;14.20;;;4.47;;
69381;SDS011;56560;50.692;12.844;2024-02-21T06:34:32;16.00;;;4.88;;
69381;SDS011;56560;50.692;12.844;2024-02-21T06:36:58;15.63;;;3.90;;
69381;SDS011;56560;50.692;12.844;2024-02-21T06:39:24;15.73;;;3.97;;
69381;SDS011;56560;50.692;12.844;2024-02-21T06:41:50;12.70;;;3.80;;
69381;SDS011;56560;50.692;12.844;2024-02-21T06:44:18;15.65;;;4.20;;
69381;SDS011;56560;50.692;12.844;2024-02-21T06:46:44;14.20;;;4.22;;
69381;SDS011;56560;50.692;12.844;2024-02-21T06:49:10;13.70;;;4.67;;
69381;SDS011;56560;50.692;12.844;2024-02-21T06:51:42;14.25;;;4.57;;
69381;SDS011;56560;50.692;12.844;2024-02-21T06:54:08;14.27;;;4.25;;
69381;SDS011;56560;50.692;12.844;2024-02-21T06:56:37;14.48;;;4.63;;
69381;SDS011;56560;50.692;12.844;2024-02-21T06:59:04;14.68;;;4.50;;
69381;SDS011;56560;50.692;12.844;2024-02-21T07:01:30;11.53;;;3.83;;
69381;SDS011;56560;50.692;12.844;2024-02-21T07:03:56;13.98;;;4.13;;
69381;SDS011;56560;50.692;12.844;2024-02-21T07:06:22;13.40;;;4.20;;
69381;SDS011;56560;50.692;12.844;2024-02-21T07:08:47;11.07;;;3.70;;
69381;SDS011;56560;50.692;12.844;2024-02-21T07:11:13;13.50;;;3.07;;
69381;SDS011;56560;50.692;12.844;2024-02-21T07:13:39;13.07;;;4.15;;
69381;SDS011;56560;50.692;12.844;2024-02-21T07:16:05;12.57;;;3.83;;
69381;SDS011;56560;50.692;12.844;2024-02-21T07:18:31;15.32;;;4.22;;
69381;SDS011;56560;50.692;12.844;2024-02-21T07:20:56;13.43;;;4.13;;
69381;SDS011;56560;50.692;12.844;2024-02-21T07:23:23;14.23;;;3.72;;
69381;SDS011;56560;50.692;12.844;2024-02-21T07:25:49;11.65;;;3.80;;
69381;SDS011;56560;50.692;12.844;2024-02-21T07:28:14;11.80;;;3.60;;
69381;SDS011;56560;50.692;12.844;2024-02-21T07:30:41;11.30;;;3.05;;
69381;SDS011;56560;50.692;12.844;2024-02-21T07:33:07;11.47;;;4.00;;
69381;SDS011;56560;50.692;12.844;2024-02-21T07:35:32;12.27;;;3.92;;
69381;SDS011;56560;50.692;12.844;2024-02-21T07:37:58;15.03;;;4.20;;
69381;SDS011;56560;50.692;12.844;2024-02-21T07:40:24;11.65;;;3.63;;
69381;SDS011;56560;50.692;12.844;2024-02-21T07:42:49;12.93;;;4.15;;
69381;SDS011;56560;50.692;12.844;2024-02-21T07:45:15;13.20;;;3.67;;
69381;SDS011;56560;50.692;12.844;2024-02-21T07:47:40;12.35;;;3.67;;
69381;SDS011;56560;50.692;12.844;2024-02-21T07:50:06;13.37;;;3.63;;
69381;SDS011;56560;50.692;12.844;2024-02-21T07:52:33;13.85;;;4.38;;
69381;SDS011;56560;50.692;12.844;2024-02-21T07:54:58;13.87;;;3.97;;
69381;SDS011;56560;50.692;12.844;2024-02-21T07:57:24;11.05;;;3.63;;
69381;SDS011;56560;50.692;12.844;2024-02-21T07:59:49;13.43;;;3.93;;
69381;SDS011;56560;50.692;12.844;2024-02-21T08:02:15;13.85;;;4.10;;
69381;SDS011;56560;50.692;12.844;2024-02-21T08:04:41;11.00;;;3.77;;
69381;SDS011;56560;50.692;12.844;2024-02-21T08:07:07;16.23;;;4.32;;
69381;SDS011;56560;50.692;12.844;2024-02-21T08:09:33;12.27;;;3.63;;
69381;SDS011;56560;50.692;12.844;2024-02-21T08:11:59;13.50;;;3.70;;
69381;SDS011;56560;50.692;12.844;2024-02-21T08:14:25;11.85;;;3.70;;
69381;SDS011;56560;50.692;12.844;2024-02-21T08:16:51;11.60;;;3.37;;
69381;SDS011;56560;50.692;12.844;2024-02-21T08:19:18;13.20;;;3.83;;
69381;SDS011;56560;50.692;12.844;2024-02-21T08:21:44;12.10;;;3.70;;
69381;SDS011;56560;50.692;12.844;2024-02-21T08:24:16;11.77;;;3.67;;
69381;SDS011;56560;50.692;12.844;2024-02-21T08:26:42;11.00;;;3.38;;
69381;SDS011;56560;50.692;12.844;2024-02-21T08:29:09;12.30;;;3.53;;
69381;SDS011;56560;50.692;12.844;2024-02-21T08:31:35;12.13;;;3.75;;
69381;SDS011;56560;50.692;12.844;2024-02-21T08:34:01;14.05;;;3.90;;
69381;SDS011;56560;50.692;12.844;2024-02-21T08:36:33;14.97;;;5.23;;
69381;SDS011;56560;50.692;12.844;2024-02-21T08:38:59;14.35;;;5.95;;
69381;SDS011;56560;50.692;12.844;2024-02-21T08:41:26;13.20;;;4.10;;
69381;SDS011;56560;50.692;12.844;2024-02-21T08:43:52;12.95;;;3.53;;
69381;SDS011;56560;50.692;12.844;2024-02-21T08:46:21;13.27;;;3.55;;
69381;SDS011;56560;50.692;12.844;2024-02-21T08:48:49;11.70;;;3.70;;
69381;SDS011;56560;50.692;12.844;2024-02-21T08:51:16;14.20;;;3.72;;
69381;SDS011;56560;50.692;12.844;2024-02-21T08:53:42;11.98;;;3.60;;
69381;SDS011;56560;50.692;12.844;2024-02-21T08:56:10;13.55;;;3.95;;
69381;SDS011;56560;50.692;12.844;2024-02-21T08:58:39;12.02;;;3.20;;
69381;SDS011;56560;50.692;12.844;2024-02-21T09:01:06;13.10;;;3.43;;
69381;SDS011;56560;50.692;12.844;2024-02-21T09:03:35;11.70;;;3.50;;
69381;SDS011;56560;50.692;12.844;2024-02-21T09:06:01;11.00;;;3.10;;
69381;SDS011;56560;50.692;12.844;2024-02-21T09:08:27;13.30;;;3.90;;
69381;SDS011;56560;50.692;12.844;2024-02-21T09:10:52;12.70;;;3.57;;
69381;SDS011;56560;50.692;12.844;2024-02-21T09:13:18;8.90;;;2.60;;
69381;SDS011;56560;50.692;12.844;2024-02-21T09:15:44;11.37;;;3.57;;
69381;SDS011;56560;50.692;12.844;2024-02-21T09:18:10;11.63;;;3.50;;
69381;SDS011;56560;50.692;12.844;2024-02-21T09:20:35;14.30;;;4.60;;
69381;SDS011;56560;50.692;12.844;2024-02-21T09:23:01;17.25;;;5.50;;
69381;SDS011;56560;50.692;12.844;2024-02-21T09:25:27;13.13;;;3.67;;
69381;SDS011;56560;50.692;12.844;2024-02-21T09:27:53;11.37;;;3.30;;
69381;SDS011;56560;50.692;12.844;2024-02-21T09:30:19;11.25;;;3.50;;
69381;SDS011;56560;50.692;12.844;2024-02-21T09:32:45;11.45;;;3.20;;
69381;SDS011;56560;50.692;12.844;2024-02-21T09:35:11;13.13;;;3.85;;
69381;SDS011;56560;50.692;12.844;2024-02-21T09:37:38;10.23;;;3.40;;
69381;SDS011;56560;50.692;12.844;2024-02-21T09:40:04;10.05;;;3.55;;
69381;SDS011;56560;50.692;12.844;2024-02-21T09:42:37;11.82;;;3.25;;
69381;SDS011;56560;50.692;12.844;2024-02-21T09:45:08;12.93;;;3.70;;
69381;SDS011;56560;50.692;12.844;2024-02-21T09:47:50;10.07;;;3.10;;
69381;SDS011;56560;50.692;12.844;2024-02-21T09:50:28;12.07;;;3.33;;
69381;SDS011;56560;50.692;12.844;2024-02-21T09:52:56;22.80;;;3.92;;
69381;SDS011;56560;50.692;12.844;2024-02-21T09:55:23;11.95;;;3.55;;
69381;SDS011;56560;50.692;12.844;2024-02-21T09:57:50;9.32;;;3.15;;
69381;SDS011;56560;50.692;12.844;2024-02-21T10:00:17;11.57;;;3.00;;
69381;SDS011;56560;50.692;12.844;2024-02-21T10:02:47;11.13;;;3.97;;
69381;SDS011;56560;50.692;12.844;2024-02-21T10:05:14;8.75;;;3.33;;
69381;SDS011;56560;50.692;12.844;2024-02-21T10:07:40;14.50;;;3.60;;
69381;SDS011;56560;50.692;12.844;2024-02-21T10:10:06;14.07;;;4.23;;
69381;SDS011;56560;50.692;12.844;2024-02-21T10:12:32;10.35;;;3.15;;
69381;SDS011;56560;50.692;12.844;2024-02-21T10:15:01;12.00;;;3.38;;
69381;SDS011;56560;50.692;12.844;2024-02-21T10:17:28;13.60;;;4.00;;
69381;SDS011;56560;50.692;12.844;2024-02-21T10:19:53;12.27;;;4.00;;
69381;SDS011;56560;50.692;12.844;2024-02-21T10:22:19;12.23;;;3.20;;
69381;SDS011;56560;50.692;12.844;2024-02-21T10:24:48;10.05;;;3.58;;
69381;SDS011;56560;50.692;12.844;2024-02-21T10:27:14;17.75;;;3.97;;
69381;SDS011;56560;50.692;12.844;2024-02-21T10:29:40;10.80;;;3.67;;
69381;SDS011;56560;50.692;12.844;2024-02-21T10:34:38;9.88;;;3.10;;
69381;SDS011;56560;50.692;12.844;2024-02-21T10:37:06;8.90;;;3.10;;
69381;SDS011;56560;50.692;12.844;2024-02-21T10:39:33;10.52;;;3.30;;
69381;SDS011;56560;50.692;12.844;2024-02-21T10:42:00;10.80;;;3.13;;
69381;SDS011;56560;50.692;12.844;2024-02-21T10:44:30;11.75;;;3.30;;
69381;SDS011;56560;50.692;12.844;2024-02-21T10:47:05;11.65;;;3.30;;
69381;SDS011;56560;50.692;12.844;2024-02-21T10:49:33;8.53;;;2.87;;
69381;SDS011;56560;50.692;12.844;2024-02-21T10:54:44;9.95;;;3.10;;
69381;SDS011;56560;50.692;12.844;2024-02-21T10:57:11;8.00;;;2.65;;
69381;SDS011;56560;50.692;12.844;2024-02-21T10:59:38;8.88;;;3.00;;
69381;SDS011;56560;50.692;12.844;2024-02-21T11:02:05;10.40;;;2.90;;
69381;SDS011;56560;50.692;12.844;2024-02-21T11:04:32;9.55;;;2.75;;
69381;SDS011;56560;50.692;12.844;2024-02-21T11:07:03;8.27;;;2.63;;
69381;SDS011;56560;50.692;12.844;2024-02-21T11:09:30;10.60;;;2.90;;
69381;SDS011;56560;50.692;12.844;2024-02-21T11:11:57;11.00;;;2.85;;
69381;SDS011;56560;50.692;12.844;2024-02-21T11:14:27;10.53;;;3.10;;
69381;SDS011;56560;50.692;12.844;2024-02-21T11:16:53;10.57;;;2.70;;
69381;SDS011;56560;50.692;12.844;2024-02-21T11:19:27;9.25;;;3.28;;
69381;SDS011;56560;50.692;12.844;2024-02-21T11:21:55;9.20;;;3.10;;
69381;SDS011;56560;50.692;12.844;2024-02-21T11:24:31;16.05;;;4.72;;
69381;SDS011;56560;50.692;12.844;2024-02-21T11:27:18;12.80;;;3.90;;
69381;SDS011;56560;50.692;12.844;2024-02-21T11:29:57;10.43;;;2.85;;
69381;SDS011;56560;50.692;12.844;2024-02-21T11:32:24;9.55;;;2.72;;
69381;SDS011;56560;50.692;12.844;2024-02-21T11:35:01;10.80;;;3.00;;
69381;SDS011;56560;50.692;12.844;2024-02-21T11:37:30;10.02;;;3.05;;
69381;SDS011;56560;50.692;12.844;2024-02-21T11:39:58;11.17;;;3.70;;
69381;SDS011;56560;50.692;12.844;2024-02-21T11:42:27;10.30;;;2.83;;
69381;SDS011;56560;50.692;12.844;2024-02-21T11:44:54;9.50;;;2.60;;
69381;SDS011;56560;50.692;12.844;2024-02-21T11:47:22;8.65;;;3.05;;
69381;SDS011;56560;50.692;12.844;2024-02-21T11:49:48;9.57;;;3.00;;
69381;SDS011;56560;50.692;12.844;2024-02-21T11:52:18;8.63;;;2.95;;
69381;SDS011;56560;50.692;12.844;2024-02-21T11:54:47;9.32;;;2.97;;
69381;SDS011;56560;50.692;12.844;2024-02-21T11:57:13;8.38;;;2.65;;
69381;SDS011;56560;50.692;12.844;2024-02-21T11:59:42;9.60;;;2.57;;
69381;SDS011;56560;50.692;12.844;2024-02-21T12:02:09;10.15;;;2.60;;
69381;SDS011;56560;50.692;12.844;2024-02-21T12:04:35;12.75;;;4.05;;
69381;SDS011;56560;50.692;12.844;2024-02-21T12:07:01;7.15;;;2.30;;
69381;SDS011;56560;50.692;12.844;2024-02-21T12:09:29;7.75;;;2.55;;
69381;SDS011;56560;50.692;12.844;2024-02-21T12:14:25;9.65;;;3.00;;
69381;SDS011;56560;50.692;12.844;2024-02-21T12:16:53;7.07;;;2.40;;
69381;SDS011;56560;50.692;12.844;2024-02-21T12:19:19;6.82;;;2.50;;
69381;SDS011;56560;50.692;12.844;2024-02-21T12:21:45;8.25;;;2.70;;
69381;SDS011;56560;50.692;12.844;2024-02-21T12:26:40;8.52;;;2.85;;
69381;SDS011;56560;50.692;12.844;2024-02-21T12:29:06;9.45;;;2.47;;
69381;SDS011;56560;50.692;12.844;2024-02-21T12:31:36;7.50;;;2.77;;
69381;SDS011;56560;50.692;12.844;2024-02-21T12:34:05;11.35;;;2.30;;
69381;SDS011;56560;50.692;12.844;2024-02-21T12:36:32;6.80;;;2.28;;
69381;SDS011;56560;50.692;12.844;2024-02-21T12:38:58;6.25;;;2.33;;
69381;SDS011;56560;50.692;12.844;2024-02-21T12:41:24;6.68;;;2.35;;
69381;SDS011;56560;50.692;12.844;2024-02-21T12:43:53;7.83;;;2.47;;
69381;SDS011;56560;50.692;12.844;2024-02-21T12:46:19;7.90;;;2.17;;
69381;SDS011;56560;50.692;12.844;2024-02-21T12:48:44;10.27;;;2.60;;
69381;SDS011;56560;50.692;12.844;2024-02-21T12:51:10;7.57;;;2.33;;
69381;SDS011;56560;50.692;12.844;2024-02-21T12:53:36;9.18;;;2.90;;
69381;SDS011;56560;50.692;12.844;2024-02-21T12:56:01;7.40;;;2.10;;
69381;SDS011;56560;50.692;12.844;2024-02-21T12:58:30;6.50;;;2.30;;
69381;SDS011;56560;50.692;12.844;2024-02-21T13:00:56;8.48;;;2.50;;
69381;SDS011;56560;50.692;12.844;2024-02-21T13:03:22;6.43;;;2.15;;
69381;SDS011;56560;50.692;12.844;2024-02-21T13:05:48;8.40;;;2.00;;
69381;SDS011;56560;50.692;12.844;2024-02-21T13:08:13;9.20;;;2.33;;
69381;SDS011;56560;50.692;12.844;2024-02-21T13:10:39;6.25;;;2.10;;
69381;SDS011;56560;50.692;12.844;2024-02-21T13:13:06;9.07;;;2.33;;
69381;SDS011;56560;50.692;12.844;2024-02-21T13:15:32;7.77;;;2.10;;
69381;SDS011;56560;50.692;12.844;2024-02-21T13:17:57;7.68;;;2.40;;
69381;SDS011;56560;50.692;12.844;2024-02-21T13:20:24;7.43;;;2.13;;
69381;SDS011;56560;50.692;12.844;2024-02-21T13:22:50;6.13;;;2.13;;
69381;SDS011;56560;50.692;12.844;2024-02-21T13:25:16;6.45;;;2.10;;
69381;SDS011;56560;50.692;12.844;2024-02-21T13:27:45;8.37;;;2.20;;
69381;SDS011;56560;50.692;12.844;2024-02-21T13:30:11;9.20;;;2.22;;
69381;SDS011;56560;50.692;12.844;2024-02-21T13:32:37;5.38;;;2.30;;
69381;SDS011;56560;50.692;12.844;2024-02-21T13:35:03;6.37;;;2.20;;
69381;SDS011;56560;50.692;12.844;2024-02-21T13:37:29;6.05;;;2.10;;
69381;SDS011;56560;50.692;12.844;2024-02-21T13:39:55;6.10;;;1.90;;
69381;SDS011;56560;50.692;12.844;2024-02-21T13:42:21;7.55;;;2.10;;
69381;SDS011;56560;50.692;12.844;2024-02-21T13:44:46;6.88;;;2.00;;
69381;SDS011;56560;50.692;12.844;2024-02-21T13:47:13;5.75;;;1.88;;
69381;SDS011;56560;50.692;12.844;2024-02-21T13:49:40;6.22;;;1.90;;
69381;SDS011;56560;50.692;12.844;2024-02-21T13:52:06;6.70;;;2.00;;
69381;SDS011;56560;50.692;12.844;2024-02-21T13:54:31;6.37;;;2.20;;
69381;SDS011;56560;50.692;12.844;2024-02-21T13:56:57;6.63;;;2.10;;
69381;SDS011;56560;50.692;12.844;2024-02-21T13:59:22;7.83;;;2.40;;
69381;SDS011;56560;50.692;12.844;2024-02-21T14:01:48;5.53;;;1.73;;
69381;SDS011;56560;50.692;12.844;2024-02-21T14:04:14;8.47;;;2.97;;
69381;SDS011;56560;50.692;12.844;2024-02-21T14:06:39;6.47;;;2.10;;
69381;SDS011;56560;50.692;12.844;2024-02-21T14:09:09;6.00;;;1.92;;
69381;SDS011;56560;50.692;12.844;2024-02-21T14:11:34;5.75;;;2.25;;
69381;SDS011;56560;50.692;12.844;2024-02-21T14:14:00;7.30;;;2.42;;
69381;SDS011;56560;50.692;12.844;2024-02-21T14:16:26;9.23;;;3.10;;
69381;SDS011;56560;50.692;12.844;2024-02-21T14:18:52;11.18;;;2.80;;
69381;SDS011;56560;50.692;12.844;2024-02-21T14:21:19;10.57;;;2.97;;
69381;SDS011;56560;50.692;12.844;2024-02-21T14:23:44;6.43;;;2.10;;
69381;SDS011;56560;50.692;12.844;2024-02-21T14:26:10;4.30;;;1.88;;
69381;SDS011;56560;50.692;12.844;2024-02-21T14:28:37;6.50;;;2.50;;
69381;SDS011;56560;50.692;12.844;2024-02-21T14:31:03;7.23;;;2.50;;
69381;SDS011;56560;50.692;12.844;2024-02-21T14:33:31;8.73;;;2.10;;
69381;SDS011;56560;50.692;12.844;2024-02-21T14:35:56;7.07;;;2.10;;